Terminal Aerodrome Forecast
Issued by NWS

Home | Current Version | Previous Version | Text Only | Print | Product List | Glossary On
Versions: 1 2 3 4 5 6 7 8 9 10 11 12 13 14 15 16 17 18 19 20 21 22 23 24 25 26 27 28 29
000
FTUS42 KILM 051700
TAFCRE
TAF
KCRE 051723Z 0518/0618 22020G30KT 5SM BR SCT002 BKN030
      TEMPO 0518/0521 2SM BR OVC002
     FM060000 36012G20KT P6SM -SHRA SCT007 OVC012
     FM060300 01015G22KT 3SM -RA BR SCT003 OVC007
     FM060900 03018G25KT P6SM -RA BKN015 OVC025
     FM061200 03015G22KT P6SM SCT025 BKN050=

USA.gov is the U.S. government's official web portal to all federal, state and local government web resources and services.